createdAt,value
2022-12-15T00:02:00.482Z,99059.16
2022-12-15T00:04:47.204Z,99063.81
2022-12-15T00:07:33.924Z,99070.22
2022-12-15T00:10:20.508Z,99073.31
2022-12-15T00:13:06.736Z,99074.09
2022-12-15T00:15:53.365Z,99075.97
2022-12-15T00:18:39.706Z,99070.03
2022-12-15T00:21:26.408Z,99076.41
2022-12-15T00:24:12.858Z,99081.72
2022-12-15T00:26:59.614Z,99082.84
2022-12-15T00:29:46.051Z,99075.03
2022-12-15T00:32:32.700Z,99076.56
2022-12-15T00:35:18.758Z,99083.75
2022-12-15T00:38:05.362Z,99085.31
2022-12-15T00:40:32.936Z,99109.63
2022-12-15T00:43:00.894Z,99120.69
2022-12-15T00:45:48.534Z,99124.91
2022-12-15T00:48:16.354Z,99142.69
2022-12-15T00:50:53.363Z,99134.09
2022-12-15T00:53:42.197Z,99148.63
2022-12-15T00:56:28.800Z,99163.09
2022-12-15T00:59:15.457Z,99166.06
2022-12-15T01:02:02.179Z,99167.66
2022-12-15T01:04:49.085Z,99182.13
2022-12-15T01:07:35.429Z,99157.16
2022-12-15T01:10:22.686Z,99159.50
2022-12-15T01:13:08.957Z,99161.06
2022-12-15T01:15:55.898Z,99163.06
2022-12-15T01:18:43.343Z,99155.09
2022-12-15T01:21:17.721Z,99160.72
2022-12-15T01:23:45.488Z,99152.44
2022-12-15T01:26:13.775Z,99152.44
2022-12-15T01:28:41.427Z,99137.63
2022-12-15T01:31:12.979Z,99141.50
2022-12-15T01:33:42.773Z,99133.88
2022-12-15T01:36:12.128Z,99144.97
2022-12-15T01:38:39.802Z,99143.38
2022-12-15T01:41:11.259Z,99141.81
2022-12-15T01:43:40.977Z,99141.38
2022-12-15T01:46:16.063Z,99158.88
2022-12-15T01:49:11.256Z,99161.53
2022-12-15T01:51:50.088Z,99148.88
2022-12-15T01:54:23.603Z,99157.75
2022-12-15T01:57:00.968Z,99159.19
2022-12-15T01:59:36.051Z,99157.94
2022-12-15T02:02:04.442Z,99167.31
2022-12-15T02:04:33.696Z,99168.72
2022-12-15T02:07:01.556Z,99153.94
2022-12-15T02:09:30.220Z,99157.53
2022-12-15T02:12:28.775Z,99158.16
2022-12-15T02:15:14.283Z,99167.88
2022-12-15T02:18:22.232Z,99168.63
2022-12-15T02:20:52.809Z,99180.53
2022-12-15T02:23:59.902Z,99187.38
2022-12-15T02:27:01.164Z,99181.00
2022-12-15T02:30:09.513Z,99163.19
2022-12-15T02:33:16.124Z,99155.25
2022-12-15T02:35:50.460Z,99144.94
2022-12-15T02:38:36.612Z,99139.00
2022-12-15T02:41:06.739Z,99151.19
2022-12-15T02:43:38.922Z,99148.34
2022-12-15T02:46:38.270Z,99152.53
2022-12-15T02:49:46.815Z,99176.56
2022-12-15T02:52:38.666Z,99178.00
2022-12-15T02:55:39.232Z,99171.13
2022-12-15T02:58:45.344Z,99160.38
2022-12-15T03:01:34.830Z,99155.38
2022-12-15T03:04:06.268Z,99170.97
2022-12-15T03:06:33.968Z,99169.56
2022-12-15T03:09:01.915Z,99178.00
2022-12-15T03:11:29.509Z,99175.97
2022-12-15T03:13:58.651Z,99168.00
2022-12-15T03:16:26.309Z,99175.50
2022-12-15T03:18:54.905Z,99186.91
2022-12-15T03:21:22.509Z,99193.28
2022-12-15T03:23:50.382Z,99187.22
2022-12-15T03:26:18.047Z,99186.75
2022-12-15T03:28:45.888Z,99192.38
2022-12-15T03:31:13.670Z,99185.84
2022-12-15T03:33:41.685Z,99188.00
2022-12-15T03:36:09.747Z,99185.69
2022-12-15T03:38:37.584Z,99206.13
2022-12-15T03:41:05.315Z,99200.06
2022-12-15T03:43:33.746Z,99212.69
2022-12-15T03:46:01.960Z,99214.69
2022-12-15T03:48:29.911Z,99227.19
2022-12-15T03:53:25.776Z,99239.66
2022-12-15T03:55:53.536Z,99254.97
2022-12-15T03:58:21.479Z,99259.59
2022-12-15T04:00:49.112Z,99252.28
2022-12-15T04:03:17.002Z,99241.22
2022-12-15T04:05:44.695Z,99246.66
2022-12-15T04:08:13.022Z,99251.16
2022-12-15T04:10:40.690Z,99258.22
2022-12-15T04:13:12.185Z,99264.91
2022-12-15T04:15:40.900Z,99272.09
2022-12-15T04:18:10.969Z,99276.31
2022-12-15T04:20:40.685Z,99277.88
2022-12-15T04:23:08.882Z,99271.03
2022-12-15T04:25:55.919Z,99273.66
2022-12-15T04:28:42.741Z,99264.16
2022-12-15T04:31:33.789Z,99268.53
2022-12-15T04:34:25.049Z,99274.16
2022-12-15T04:37:13.414Z,99276.81
2022-12-15T04:40:07.896Z,99275.09
2022-12-15T04:42:59.082Z,99277.16
2022-12-15T04:45:45.967Z,99286.97
2022-12-15T04:48:33.039Z,99293.97
2022-12-15T04:51:20.644Z,99303.81
2022-12-15T04:54:08.304Z,99310.34
2022-12-15T04:56:54.906Z,99304.72
2022-12-15T04:59:41.088Z,99316.28
2022-12-15T05:02:27.705Z,99315.19
2022-12-15T05:05:14.205Z,99317.22
2022-12-15T05:08:00.866Z,99332.03
2022-12-15T05:10:47.684Z,99330.16
2022-12-15T05:13:35.300Z,99325.31
2022-12-15T05:16:23.654Z,99326.56
2022-12-15T05:19:10.236Z,99336.56
2022-12-15T05:21:56.338Z,99331.88
2022-12-15T05:24:42.822Z,99333.72
2022-12-15T05:27:34.351Z,99339.53
2022-12-15T05:30:20.626Z,99338.25
2022-12-15T05:32:48.280Z,99351.53
2022-12-15T05:35:18.182Z,99347.78
2022-12-15T05:37:45.727Z,99344.03
2022-12-15T05:40:13.747Z,99350.13
2022-12-15T05:42:41.365Z,99350.13
2022-12-15T05:45:10.353Z,99352.31
2022-12-15T05:47:37.910Z,99350.00
2022-12-15T05:50:06.537Z,99347.78
2022-12-15T05:52:35.039Z,99351.06
2022-12-15T05:55:06.781Z,99360.91
2022-12-15T05:57:35.053Z,99355.91
2022-12-15T06:00:06.303Z,99378.38
2022-12-15T06:02:39.245Z,99376.84
2022-12-15T06:05:08.157Z,99370.72
2022-12-15T06:07:37.414Z,99389.94
2022-12-15T06:10:05.832Z,99393.06
2022-12-15T06:12:33.343Z,99396.34
2022-12-15T06:15:01.321Z,99397.41
2022-12-15T06:17:28.897Z,99403.22
2022-12-15T06:19:56.769Z,99400.72
2022-12-15T06:22:24.312Z,99413.31
2022-12-15T06:24:52.554Z,99421.13
2022-12-15T06:27:20.478Z,99427.09
2022-12-15T06:29:48.355Z,99432.06
2022-12-15T06:32:15.963Z,99431.75
2022-12-15T06:34:44.036Z,99434.09
2022-12-15T06:37:11.807Z,99431.91
2022-12-15T06:39:39.989Z,99432.25
2022-12-15T06:42:07.645Z,99423.47
2022-12-15T06:44:35.766Z,99423.94
2022-12-15T06:47:03.991Z,99433.47
2022-12-15T06:49:32.173Z,99439.69
2022-12-15T06:52:18.803Z,99444.84
2022-12-15T06:54:46.786Z,99443.16
2022-12-15T06:57:14.312Z,99454.53
2022-12-15T06:59:42.361Z,99450.78
2022-12-15T07:02:23.725Z,99442.53
2022-12-15T07:04:54.807Z,99454.38
2022-12-15T07:07:22.572Z,99449.84
2022-12-15T07:09:50.513Z,99450.47
2022-12-15T07:12:18.399Z,99457.31
2022-12-15T07:14:51.557Z,99453.59
2022-12-15T07:17:20.882Z,99458.28
2022-12-15T07:19:48.644Z,99469.34
2022-12-15T07:22:16.240Z,99460.47
2022-12-15T07:24:44.197Z,99467.00
2022-12-15T07:27:11.658Z,99463.25
2022-12-15T07:29:39.659Z,99471.22
2022-12-15T07:32:07.348Z,99477.75
2022-12-15T07:34:35.299Z,99477.91
2022-12-15T07:37:03.824Z,99474.94
2022-12-15T07:39:31.925Z,99478.09
2022-12-15T07:41:59.873Z,99479.78
2022-12-15T07:44:32.067Z,99483.38
2022-12-15T07:46:59.861Z,99481.97
2022-12-15T07:49:27.775Z,99484.91
2022-12-15T07:51:58.505Z,99492.25
2022-12-15T07:54:26.489Z,99490.84
2022-12-15T07:56:53.975Z,99477.25
2022-12-15T07:59:21.912Z,99485.38
2022-12-15T08:01:50.138Z,99486.91
2022-12-15T08:04:18.733Z,99498.47
2022-12-15T08:06:46.283Z,99500.16
2022-12-15T08:09:16.685Z,99490.78
2022-12-15T08:11:44.285Z,99493.91
2022-12-15T08:14:17.254Z,99508.09
2022-12-15T08:16:46.723Z,99497.31
2022-12-15T08:19:17.006Z,99504.34
2022-12-15T08:21:46.877Z,99507.63
2022-12-15T08:24:15.608Z,99515.25
2022-12-15T08:26:44.333Z,99524.75
2022-12-15T08:29:49.428Z,99516.72
2022-12-15T08:32:08.039Z,99534.53
2022-12-15T08:34:38.105Z,99536.22
2022-12-15T08:37:05.668Z,99542.91
2022-12-15T08:39:33.778Z,99551.06
2022-12-15T08:42:01.438Z,99563.25
2022-12-15T08:44:29.571Z,99555.56
2022-12-15T08:46:57.226Z,99554.81
2022-12-15T08:49:25.872Z,99557.91
2022-12-15T08:51:53.748Z,99549.63
2022-12-15T08:54:21.775Z,99551.97
2022-12-15T08:56:49.708Z,99562.75
2022-12-15T08:59:17.644Z,99562.56
2022-12-15T09:01:45.297Z,99569.13
2022-12-15T09:04:13.464Z,99569.41
2022-12-15T09:06:41.844Z,99566.88
2022-12-15T09:09:12.944Z,99579.66
2022-12-15T09:11:40.823Z,99582.13
2022-12-15T09:14:09.008Z,99583.50
2022-12-15T09:16:36.777Z,99573.13
2022-12-15T09:19:33.596Z,99563.50
2022-12-15T09:22:20.196Z,99556.56
2022-12-15T09:24:49.258Z,99555.56
2022-12-15T09:27:16.846Z,99556.19
2022-12-15T09:29:44.751Z,99550.31
2022-12-15T09:32:14.548Z,99542.25
2022-12-15T09:34:42.884Z,99532.94
2022-12-15T09:37:10.440Z,99536.63
2022-12-15T09:39:39.209Z,99527.31
2022-12-15T09:42:23.599Z,99526.44
2022-12-15T09:45:15.170Z,99532.47
2022-12-15T09:48:17.469Z,99541.47
2022-12-15T09:50:50.992Z,99539.03
2022-12-15T09:53:56.469Z,99548.50
2022-12-15T09:56:42.922Z,99535.41
2022-12-15T09:59:26.678Z,99542.41
2022-12-15T10:02:10.310Z,99546.44
2022-12-15T10:04:53.117Z,99544.41
2022-12-15T10:07:43.897Z,99548.56
2022-12-15T10:10:56.168Z,99542.78
2022-12-15T10:13:50.417Z,99537.66
2022-12-15T10:16:33.094Z,99537.88
2022-12-15T10:19:13.468Z,99531.97
2022-12-15T10:21:42.535Z,99535.97
2022-12-15T10:24:44.242Z,99526.16
2022-12-15T10:27:17.295Z,99528.59
2022-12-15T10:29:51.888Z,99523.44
2022-12-15T10:32:32.071Z,99531.31
2022-12-15T10:35:00.206Z,99528.06
2022-12-15T10:37:27.759Z,99522.94
2022-12-15T10:39:55.652Z,99525.06
2022-12-15T10:42:26.569Z,99517.56
2022-12-15T10:44:57.730Z,99519.31
2022-12-15T10:47:29.454Z,99513.00
2022-12-15T10:50:24.782Z,99507.16
2022-12-15T10:52:52.923Z,99512.38
2022-12-15T10:55:40.122Z,99513.75
2022-12-15T10:58:23.683Z,99505.22
2022-12-15T11:01:08.942Z,99510.03
2022-12-15T11:03:39.743Z,99516.44
2022-12-15T11:06:26.267Z,99515.91
2022-12-15T11:08:57.262Z,99511.06
2022-12-15T11:11:51.485Z,99508.69
2022-12-15T11:14:29.441Z,99502.88
2022-12-15T11:16:59.522Z,99509.28
2022-12-15T11:19:44.453Z,99508.13
2022-12-15T11:22:45.731Z,99498.06
2022-12-15T11:25:35.249Z,99486.50
2022-12-15T11:28:11.426Z,99496.34
2022-12-15T11:30:55.856Z,99494.66
2022-12-15T11:33:23.823Z,99500.22
2022-12-15T11:36:19.404Z,99499.69
2022-12-15T11:38:53.170Z,99502.97
2022-12-15T11:41:50.934Z,99495.56
2022-12-15T11:44:40.345Z,99496.22
2022-12-15T11:47:34.009Z,99490.63
2022-12-15T11:50:37.090Z,99491.88
2022-12-15T11:53:54.314Z,99500.91
2022-12-15T11:56:37.263Z,99501.19
2022-12-15T11:59:38.920Z,99508.38
2022-12-15T12:02:33.863Z,99508.72
2022-12-15T12:05:55.283Z,99506.06
2022-12-15T12:08:41.450Z,99508.28
2022-12-15T12:11:30.897Z,99512.78
2022-12-15T12:14:32.307Z,99509.84
2022-12-15T12:17:32.892Z,99516.16
2022-12-15T12:20:14.144Z,99520.16
2022-12-15T12:23:05.746Z,99511.00
2022-12-15T12:26:03.779Z,99511.88
2022-12-15T12:28:59.116Z,99527.75
2022-12-15T12:34:51.146Z,99537.50
2022-12-15T12:37:24.352Z,99522.06
2022-12-15T12:40:03.805Z,99517.06
2022-12-15T12:42:53.715Z,99507.41
2022-12-15T12:45:32.680Z,99508.91
2022-12-15T12:48:13.008Z,99505.03
2022-12-15T12:50:40.955Z,99513.50
2022-12-15T12:53:35.120Z,99506.16
2022-12-15T12:56:03.772Z,99521.22
2022-12-15T12:58:39.761Z,99525.41
2022-12-15T13:01:33.374Z,99529.97
2022-12-15T13:04:10.963Z,99532.59
2022-12-15T13:06:41.615Z,99518.59
2022-12-15T13:09:19.038Z,99520.41
2022-12-15T13:11:51.110Z,99521.47
2022-12-15T13:14:40.772Z,99524.53
2022-12-15T13:17:38.905Z,99533.81
2022-12-15T13:20:32.258Z,99528.75
2022-12-15T13:23:21.725Z,99537.75
2022-12-15T13:25:59.042Z,99534.00
2022-12-15T13:28:44.381Z,99510.97
2022-12-15T13:31:20.853Z,99503.41
2022-12-15T13:33:56.471Z,99514.72
2022-12-15T13:36:47.007Z,99529.81
2022-12-15T13:39:20.233Z,99526.34
2022-12-15T13:42:23.657Z,99530.53
2022-12-15T13:44:45.352Z,99525.03
2022-12-15T13:47:22.626Z,99540.38
2022-12-15T13:50:02.253Z,99550.19
2022-12-15T13:53:17.018Z,99553.41
2022-12-15T13:55:46.280Z,99550.47
2022-12-15T13:58:22.446Z,99547.16
2022-12-15T14:00:56.882Z,99546.16
2022-12-15T14:03:25.013Z,99542.06
2022-12-15T14:05:56.542Z,99548.75
2022-12-15T14:08:28.636Z,99548.84
2022-12-15T14:11:00.209Z,99552.94
2022-12-15T14:13:36.535Z,99556.13
2022-12-15T14:16:22.061Z,99565.06
2022-12-15T14:19:17.682Z,99552.06
2022-12-15T14:22:01.498Z,99553.28
2022-12-15T14:24:41.910Z,99548.72
2022-12-15T14:27:09.803Z,99554.16
2022-12-15T14:29:37.971Z,99556.66
2022-12-15T14:32:06.378Z,99555.25
2022-12-15T14:34:38.990Z,99553.50
2022-12-15T14:37:17.604Z,99561.69
2022-12-15T14:42:39.470Z,99570.41
2022-12-15T14:45:28.414Z,99590.41
2022-12-15T14:51:01.148Z,99582.84
2022-12-15T14:53:40.433Z,99587.84
2022-12-15T14:56:25.922Z,99581.44
2022-12-15T14:59:04.361Z,99581.75
2022-12-15T15:02:02.334Z,99571.81
2022-12-15T15:03:12.732Z,99539.75
2022-12-15T15:03:14.381Z,99567.59
2022-12-15T15:04:35.045Z,99579.94
2022-12-15T15:07:07.592Z,99566.28
2022-12-15T15:09:44.301Z,99567.13
2022-12-15T15:12:21.548Z,99573.63
2022-12-15T15:15:06.002Z,99570.75
2022-12-15T15:17:44.120Z,99567.91
2022-12-15T15:20:39.021Z,99566.91
2022-12-15T15:23:20.070Z,99570.94
2022-12-15T15:25:54.451Z,99568.84
2022-12-15T15:28:38.379Z,99572.53
2022-12-15T15:31:24.678Z,99572.31
2022-12-15T15:33:53.886Z,99562.66
2022-12-15T15:36:22.884Z,99563.75
2022-12-15T15:38:52.263Z,99574.44
2022-12-15T15:41:22.209Z,99565.09
2022-12-15T15:43:50.611Z,99558.09
2022-12-15T15:46:31.054Z,99561.78
2022-12-15T15:49:13.408Z,99561.22
2022-12-15T15:51:40.917Z,99561.13
2022-12-15T15:54:16.545Z,99566.78
2022-12-15T15:56:44.157Z,99563.34
2022-12-15T15:59:19.868Z,99560.69
2022-12-15T16:01:54.882Z,99574.69
2022-12-15T16:04:24.587Z,99563.59
2022-12-15T16:06:53.438Z,99565.44
2022-12-15T16:09:21.672Z,99574.25
2022-12-15T16:11:49.268Z,99567.78
2022-12-15T16:14:18.032Z,99565.13
2022-12-15T16:16:45.893Z,99577.47
2022-12-15T16:19:13.898Z,99566.47
2022-12-15T16:21:42.968Z,99567.34
2022-12-15T16:24:17.763Z,99576.25
2022-12-15T16:26:49.831Z,99571.78
2022-12-15T16:29:20.980Z,99578.25
2022-12-15T16:31:49.182Z,99571.78
2022-12-15T16:34:17.744Z,99578.34
2022-12-15T16:36:45.960Z,99575.78
2022-12-15T16:39:31.304Z,99587.34
2022-12-15T16:41:59.991Z,99587.13
2022-12-15T16:44:29.608Z,99582.22
2022-12-15T16:46:59.069Z,99592.66
2022-12-15T16:49:27.968Z,99583.22
2022-12-15T16:51:56.224Z,99575.28
2022-12-15T16:54:27.800Z,99575.72
2022-12-15T16:56:58.402Z,99571.16
2022-12-15T16:59:35.625Z,99574.28
2022-12-15T17:02:38.759Z,99575.50
2022-12-15T17:05:07.625Z,99577.41
2022-12-15T17:07:35.892Z,99576.63
2022-12-15T17:10:04.760Z,99577.41
2022-12-15T17:12:32.988Z,99578.84
2022-12-15T17:15:02.621Z,99579.63
2022-12-15T17:17:31.048Z,99571.97
2022-12-15T17:20:27.926Z,99584.66
2022-12-15T17:22:54.993Z,99587.66
2022-12-15T17:25:53.312Z,99588.41
2022-12-15T17:28:20.327Z,99589.53
2022-12-15T17:30:49.044Z,99587.97
2022-12-15T17:33:26.920Z,99590.22
2022-12-15T17:36:02.426Z,99600.44
2022-12-15T17:38:30.332Z,99601.13
2022-12-15T17:40:58.261Z,99609.03
2022-12-15T17:43:33.655Z,99611.25
2022-12-15T17:46:03.414Z,99618.72
2022-12-15T17:48:31.773Z,99620.97
2022-12-15T17:50:59.925Z,99610.28
2022-12-15T17:53:29.376Z,99605.59
2022-12-15T17:55:57.628Z,99606.28
2022-12-15T17:58:27.460Z,99601.59
2022-12-15T18:00:56.736Z,99593.16
2022-12-15T18:03:24.904Z,99596.03
2022-12-15T18:05:53.884Z,99597.41
2022-12-15T18:08:27.949Z,99594.16
2022-12-15T18:10:58.048Z,99590.94
2022-12-15T18:13:35.365Z,99580.91
2022-12-15T18:16:03.861Z,99580.81
2022-12-15T18:18:31.965Z,99574.59
2022-12-15T18:21:08.029Z,99568.47
2022-12-15T18:23:37.827Z,99571.78
2022-12-15T18:26:06.038Z,99573.09
2022-12-15T18:28:36.440Z,99569.53
2022-12-15T18:31:29.721Z,99570.88
2022-12-15T18:34:04.337Z,99563.09
2022-12-15T18:36:32.380Z,99560.66
2022-12-15T18:39:13.543Z,99556.63
2022-12-15T18:41:43.966Z,99559.50
2022-12-15T18:44:32.590Z,99552.63
2022-12-15T18:47:01.059Z,99556.50
2022-12-15T18:49:29.607Z,99556.19
2022-12-15T18:51:57.756Z,99560.41
2022-12-15T18:54:26.970Z,99559.72
2022-12-15T18:56:55.613Z,99551.88
2022-12-15T18:59:24.218Z,99540.84
2022-12-15T19:01:52.741Z,99544.75
2022-12-15T19:04:21.672Z,99554.66
2022-12-15T19:06:51.203Z,99555.41
2022-12-15T19:09:23.348Z,99546.19
2022-12-15T19:12:10.078Z,99535.88
2022-12-15T19:14:41.844Z,99536.19
2022-12-15T19:17:35.170Z,99530.88
2022-12-15T19:20:38.828Z,99518.19
2022-12-15T19:23:07.453Z,99515.97
2022-12-15T19:25:35.916Z,99511.97
2022-12-15T19:28:04.251Z,99497.59
2022-12-15T19:30:38.615Z,99498.28
2022-12-15T19:33:14.671Z,99485.97
2022-12-15T19:35:47.030Z,99492.31
2022-12-15T19:38:27.448Z,99487.16
2022-12-15T19:40:56.597Z,99494.94
2022-12-15T19:43:25.646Z,99492.81
2022-12-15T19:45:53.916Z,99495.94
2022-12-15T19:48:23.982Z,99500.16
2022-12-15T19:50:54.838Z,99505.94
2022-12-15T19:53:30.063Z,99506.03
2022-12-15T19:56:01.468Z,99500.34
2022-12-15T19:58:32.573Z,99497.34
2022-12-15T20:01:06.029Z,99497.44
2022-12-15T20:03:35.213Z,99495.25
2022-12-15T20:06:04.660Z,99490.34
2022-12-15T20:08:41.760Z,99486.19
2022-12-15T20:11:20.466Z,99482.53
2022-12-15T20:13:50.226Z,99467.69
2022-12-15T20:16:19.453Z,99472.47
2022-12-15T20:18:55.449Z,99460.34
2022-12-15T20:21:28.792Z,99448.72
2022-12-15T20:24:02.302Z,99434.88
2022-12-15T20:26:31.201Z,99416.81
2022-12-15T20:28:58.828Z,99412.72
2022-12-15T20:31:27.391Z,99401.66
2022-12-15T20:33:55.126Z,99401.13
2022-12-15T20:36:28.193Z,99403.09
2022-12-15T20:38:57.009Z,99403.53
2022-12-15T20:41:29.717Z,99395.22
2022-12-15T20:43:58.958Z,99392.44
2022-12-15T20:46:32.916Z,99390.34
2022-12-15T20:49:00.687Z,99385.13
2022-12-15T20:51:32.585Z,99376.94
2022-12-15T20:54:03.466Z,99360.44
2022-12-15T20:56:31.377Z,99350.13
2022-12-15T20:58:59.232Z,99343.31
2022-12-15T21:01:32.892Z,99331.34
2022-12-15T21:04:04.648Z,99326.19
2022-12-15T21:06:32.472Z,99321.41
2022-12-15T21:09:00.044Z,99326.53
2022-12-15T21:11:32.554Z,99334.09
2022-12-15T21:14:04.282Z,99327.06
2022-12-15T21:16:33.152Z,99329.25
2022-12-15T21:19:22.400Z,99326.78
2022-12-15T21:21:55.173Z,99339.94
2022-12-15T21:24:28.667Z,99332.56
2022-12-15T21:26:56.829Z,99331.28
2022-12-15T21:29:27.848Z,99336.19
2022-12-15T21:31:55.730Z,99340.00
2022-12-15T21:34:23.417Z,99332.31
2022-12-15T21:36:55.338Z,99340.69
2022-12-15T21:39:34.126Z,99332.25
2022-12-15T21:42:13.948Z,99324.91
2022-12-15T21:44:42.727Z,99322.16
2022-12-15T21:47:52.100Z,99316.81
2022-12-15T21:50:20.105Z,99309.13
2022-12-15T21:52:48.542Z,99314.06
2022-12-15T21:55:22.666Z,99310.63
2022-12-15T21:57:50.629Z,99313.72
2022-12-15T22:00:21.232Z,99306.91
2022-12-15T22:02:52.568Z,99302.75
2022-12-15T22:05:32.567Z,99296.34
2022-12-15T22:08:19.925Z,99291.81
2022-12-15T22:10:50.352Z,99284.28
2022-12-15T22:13:22.922Z,99275.19
2022-12-15T22:15:51.670Z,99281.44
2022-12-15T22:18:19.996Z,99279.66
2022-12-15T22:20:52.382Z,99287.75
2022-12-15T22:23:20.810Z,99283.31
2022-12-15T22:25:54.203Z,99292.59
2022-12-15T22:28:25.960Z,99285.44
2022-12-15T22:30:56.020Z,99287.00
2022-12-15T22:33:26.147Z,99271.81
2022-12-15T22:35:56.210Z,99282.22
2022-12-15T22:38:25.080Z,99266.56
2022-12-15T22:40:56.525Z,99266.22
2022-12-15T22:43:45.331Z,99255.97
2022-12-15T22:46:15.255Z,99259.06
2022-12-15T22:48:47.463Z,99245.66
2022-12-15T22:51:17.471Z,99247.22
2022-12-15T22:53:45.953Z,99246.09
2022-12-15T22:56:30.792Z,99237.31
2022-12-15T22:59:05.913Z,99235.84
2022-12-15T23:01:33.911Z,99232.81
2022-12-15T23:04:02.274Z,99224.06
2022-12-15T23:06:29.836Z,99218.41
2022-12-15T23:08:57.788Z,99222.25
2022-12-15T23:11:37.708Z,99223.41
2022-12-15T23:14:18.088Z,99206.91
2022-12-15T23:16:46.637Z,99210.72
2022-12-15T23:19:23.991Z,99206.53
2022-12-15T23:21:52.181Z,99215.41
2022-12-15T23:24:20.650Z,99207.88
2022-12-15T23:26:48.133Z,99198.41
2022-12-15T23:29:16.166Z,99214.31
2022-12-15T23:31:43.654Z,99214.56
2022-12-15T23:34:12.454Z,99208.97
2022-12-15T23:36:40.132Z,99213.72
2022-12-15T23:39:08.119Z,99214.09
2022-12-15T23:41:36.033Z,99172.63
2022-12-15T23:44:04.062Z,99172.59
2022-12-15T23:46:31.757Z,99166.47
2022-12-15T23:49:00.003Z,99183.28
2022-12-15T23:51:27.666Z,99175.19
2022-12-15T23:53:55.462Z,99174.44
2022-12-15T23:56:24.505Z,99167.09
2022-12-15T23:58:57.909Z,99170.16
